Old Harbor, Alaska
Current Conditions -  °F | °C
As of 4:56 PM on Tuesday 21 Oct 2014 (Local Time) from PAKH Reporting Station
Few Clouds Few Clouds  
Wind Chill: 43°   Ceiling: Unl
Heat Index: 43°   Visibility: 10mi
Dew Point: 29°   Wind: 0mph
Humidity: 58%   Direction: NA
Pressure: 29.23"   Gusts: NA
Location:  57.2°N, 153.31°W
Report Text: PAKH 220056Z AUTO 00000KT 10SM FEW033 06/M02 A2923 RMK AO2 TSNO T00611016 SLP903 $
Loading
Personal Weather Stations






























Interactive Weather Map
Tropical Storm Tracking
New forecast layout! Learn more

10-Day Weather Forecast

Advertisements
Track Severe Weather on mobile